SKW6237 KMRY-KPHX
Flight info
| Callsign | SKW6237 |
|---|---|
| Flight time | N/A |
| Altitude | 36000 |
| Route | SERFR BOILE BLH HYDRR1 |
| Aircraft | CRJ7/M-VGDW/C |
Departure
| Time | 2026-04-20 05:03 |
|---|---|
| Airport | Monterey Regional Airport (KMRY) |
Arrival
| Time | N/A |
|---|---|
| Airport | Phoenix Sky Harbor International Airport (KPHX) |
| Time | Latitude | Longitude | Altitude | Speed | Heading |
|---|---|---|---|---|---|
| 2026-04-20 04:59 | 36.58994 | -121.85586 | 167 ft | 0 kts | 313° |
| 2026-04-20 05:01 | 36.59009 | -121.85602 | 166 ft | 5 kts | 335° |
| 2026-04-20 05:01 | 36.59035 | -121.85596 | 165 ft | 5 kts | 20° |
| 2026-04-20 05:01 | 36.59070 | -121.85542 | 165 ft | 10 kts | 93° |
| 2026-04-20 05:01 | 36.59065 | -121.85512 | 166 ft | 0 kts | 111° |
| 2026-04-20 05:02 | 36.59015 | -121.85363 | 174 ft | 51 kts | 113° |
| 2026-04-20 05:02 | 36.58788 | -121.84695 | 210 ft | 114 kts | 112° |
| 2026-04-20 05:03 | 36.58420 | -121.83610 | 297 ft | 155 kts | 112° |
| 2026-04-20 05:03 | 36.58004 | -121.82590 | 812 ft | 157 kts | 125° |
| 2026-04-20 05:03 | 36.57154 | -121.81699 | 1447 ft | 162 kts | 146° |
| 2026-04-20 05:03 | 36.56187 | -121.80923 | 2120 ft | 169 kts | 149° |
| 2026-04-20 05:04 | 36.55154 | -121.80200 | 2845 ft | 169 kts | 153° |
| 2026-04-20 05:04 | 36.54115 | -121.79597 | 3702 ft | 161 kts | 158° |
| 2026-04-20 05:04 | 36.53065 | -121.79128 | 4439 ft | 162 kts | 163° |
| 2026-04-20 05:04 | 36.51964 | -121.78775 | 5092 ft | 166 kts | 160° |
| 2026-04-20 05:05 | 36.50937 | -121.78076 | 5717 ft | 167 kts | 147° |
| 2026-04-20 05:05 | 36.49983 | -121.77222 | 6253 ft | 178 kts | 143° |
| 2026-04-20 05:05 | 36.48947 | -121.76152 | 6590 ft | 205 kts | 141° |
| 2026-04-20 05:05 | 36.47859 | -121.74987 | 7407 ft | 209 kts | 141° |
| 2026-04-20 05:06 | 36.46692 | -121.73770 | 7736 ft | 227 kts | 142° |
| 2026-04-20 05:06 | 36.45413 | -121.72528 | 8231 ft | 239 kts | 145° |
| 2026-04-20 05:06 | 36.44046 | -121.71280 | 8726 ft | 250 kts | 145° |
| 2026-04-20 05:06 | 36.42609 | -121.69971 | 9183 ft | 263 kts | 145° |
| 2026-04-20 05:07 | 36.41099 | -121.68584 | 9658 ft | 277 kts | 145° |
| 2026-04-20 05:07 | 36.39521 | -121.67119 | 10084 ft | 290 kts | 144° |
| 2026-04-20 05:07 | 36.37872 | -121.65575 | 10512 ft | 303 kts | 144° |
| 2026-04-20 05:07 | 36.36153 | -121.63963 | 10951 ft | 315 kts | 144° |
| 2026-04-20 05:08 | 36.34372 | -121.62288 | 11390 ft | 327 kts | 144° |
| 2026-04-20 05:08 | 36.32525 | -121.60551 | 11835 ft | 338 kts | 144° |
| 2026-04-20 05:08 | 36.30637 | -121.58783 | 12287 ft | 349 kts | 144° |
| 2026-04-20 05:08 | 36.28671 | -121.56940 | 12733 ft | 359 kts | 144° |
| 2026-04-20 05:09 | 36.26654 | -121.55050 | 13205 ft | 369 kts | 144° |
| 2026-04-20 05:09 | 36.24579 | -121.53106 | 13675 ft | 378 kts | 144° |
| 2026-04-20 05:09 | 36.22455 | -121.51116 | 14153 ft | 385 kts | 144° |
| 2026-04-20 05:09 | 36.20357 | -121.49150 | 15231 ft | 372 kts | 145° |
| 2026-04-20 05:10 | 36.18999 | -121.47874 | 15788 ft | 370 kts | 145° |
| 2026-04-20 05:10 | 36.16946 | -121.45950 | 16400 ft | 371 kts | 145° |
| 2026-04-20 05:10 | 36.14872 | -121.44021 | 16950 ft | 374 kts | 145° |
| 2026-04-20 05:10 | 36.12786 | -121.42080 | 17507 ft | 377 kts | 146° |
| 2026-04-20 05:11 | 36.10684 | -121.40116 | 18058 ft | 379 kts | 146° |
| 2026-04-20 05:11 | 36.08571 | -121.38145 | 18564 ft | 382 kts | 146° |
| 2026-04-20 05:11 | 36.06611 | -121.35905 | 19021 ft | 388 kts | 131° |
| 2026-04-20 05:11 | 36.05081 | -121.33128 | 19468 ft | 393 kts | 124° |
| 2026-04-20 05:12 | 36.03742 | -121.30221 | 19906 ft | 396 kts | 122° |
| 2026-04-20 05:12 | 36.02425 | -121.27214 | 20360 ft | 398 kts | 122° |
| 2026-04-20 05:12 | 36.01095 | -121.24200 | 20777 ft | 400 kts | 123° |
| 2026-04-20 05:12 | 35.99709 | -121.21210 | 21193 ft | 402 kts | 124° |
| 2026-04-20 05:13 | 35.98290 | -121.18223 | 21591 ft | 404 kts | 124° |
| 2026-04-20 05:13 | 35.96868 | -121.15220 | 21984 ft | 406 kts | 124° |
| 2026-04-20 05:13 | 35.95438 | -121.12195 | 22373 ft | 408 kts | 124° |
| 2026-04-20 05:13 | 35.94005 | -121.09160 | 22747 ft | 410 kts | 124° |
| 2026-04-20 05:14 | 35.92564 | -121.06117 | 23117 ft | 412 kts | 124° |
| 2026-04-20 05:14 | 35.91111 | -121.03048 | 23472 ft | 415 kts | 124° |
| 2026-04-20 05:14 | 35.89651 | -120.99973 | 23786 ft | 417 kts | 124° |
| 2026-04-20 05:14 | 35.88200 | -120.96920 | 24052 ft | 419 kts | 124° |
| 2026-04-20 05:15 | 35.86718 | -120.93801 | 24333 ft | 422 kts | 124° |
| 2026-04-20 05:15 | 35.85229 | -120.90670 | 24587 ft | 424 kts | 124° |
| 2026-04-20 05:15 | 35.83731 | -120.87523 | 24833 ft | 426 kts | 124° |
| 2026-04-20 05:15 | 35.82225 | -120.84363 | 25078 ft | 429 kts | 124° |
| 2026-04-20 05:16 | 35.80711 | -120.81188 | 25319 ft | 431 kts | 124° |
| 2026-04-20 05:16 | 35.79185 | -120.77990 | 25545 ft | 433 kts | 124° |
| 2026-04-20 05:16 | 35.77652 | -120.74784 | 25781 ft | 436 kts | 124° |
| 2026-04-20 05:16 | 35.76110 | -120.71563 | 26009 ft | 438 kts | 124° |
| 2026-04-20 05:17 | 35.74561 | -120.68325 | 26224 ft | 440 kts | 124° |
| 2026-04-20 05:17 | 35.72999 | -120.65068 | 26439 ft | 442 kts | 124° |
| 2026-04-20 05:17 | 35.71451 | -120.61839 | 26658 ft | 444 kts | 124° |
| 2026-04-20 05:17 | 35.69879 | -120.58564 | 26875 ft | 446 kts | 124° |
| 2026-04-20 05:18 | 35.68295 | -120.55266 | 27076 ft | 448 kts | 124° |
| 2026-04-20 05:18 | 35.66706 | -120.51962 | 27282 ft | 449 kts | 124° |
| 2026-04-20 05:18 | 35.65109 | -120.48645 | 27459 ft | 451 kts | 124° |
| 2026-04-20 05:18 | 35.63500 | -120.45309 | 27660 ft | 453 kts | 124° |
| 2026-04-20 05:19 | 35.61887 | -120.41969 | 27833 ft | 455 kts | 124° |
| 2026-04-20 05:19 | 35.60293 | -120.38662 | 28006 ft | 457 kts | 124° |
| 2026-04-20 05:19 | 35.58668 | -120.35297 | 28167 ft | 458 kts | 124° |
| 2026-04-20 05:19 | 35.57035 | -120.31929 | 28342 ft | 460 kts | 124° |
| 2026-04-20 05:20 | 35.55391 | -120.28533 | 28563 ft | 462 kts | 124° |
| 2026-04-20 05:20 | 35.53746 | -120.25140 | 28824 ft | 464 kts | 124° |
| 2026-04-20 05:20 | 35.52088 | -120.21722 | 29066 ft | 466 kts | 124° |
| 2026-04-20 05:20 | 35.50421 | -120.18296 | 29299 ft | 468 kts | 124° |
| 2026-04-20 05:21 | 35.48751 | -120.14855 | 29543 ft | 471 kts | 124° |
| 2026-04-20 05:21 | 35.47061 | -120.11380 | 29676 ft | 475 kts | 124° |
| 2026-04-20 05:21 | 35.45365 | -120.07899 | 29986 ft | 475 kts | 124° |
| 2026-04-20 05:21 | 35.43670 | -120.04423 | 30266 ft | 474 kts | 124° |
| 2026-04-20 05:22 | 35.41977 | -120.00956 | 30536 ft | 474 kts | 124° |
| 2026-04-20 05:22 | 35.40282 | -119.97487 | 30795 ft | 474 kts | 124° |
| 2026-04-20 05:22 | 35.38610 | -119.94067 | 31046 ft | 473 kts | 124° |
| 2026-04-20 05:22 | 35.36914 | -119.90609 | 31306 ft | 473 kts | 124° |
| 2026-04-20 05:23 | 35.35222 | -119.87153 | 31560 ft | 473 kts | 124° |
| 2026-04-20 05:23 | 35.33528 | -119.83704 | 31791 ft | 473 kts | 124° |
| 2026-04-20 05:23 | 35.31835 | -119.80253 | 32045 ft | 472 kts | 124° |
| 2026-04-20 05:23 | 35.30145 | -119.76814 | 32262 ft | 472 kts | 124° |
| 2026-04-20 05:24 | 35.28448 | -119.73368 | 32479 ft | 471 kts | 124° |
| 2026-04-20 05:24 | 35.26753 | -119.69928 | 32661 ft | 471 kts | 124° |
| 2026-04-20 05:24 | 35.25061 | -119.66495 | 32859 ft | 471 kts | 124° |
| 2026-04-20 05:24 | 35.23369 | -119.63067 | 33055 ft | 470 kts | 124° |
| 2026-04-20 05:25 | 35.21674 | -119.59637 | 33257 ft | 470 kts | 124° |
| 2026-04-20 05:25 | 35.19983 | -119.56217 | 33443 ft | 470 kts | 124° |
| 2026-04-20 05:25 | 35.18289 | -119.52794 | 33633 ft | 470 kts | 124° |
| 2026-04-20 05:25 | 35.16598 | -119.49384 | 33821 ft | 469 kts | 124° |
| 2026-04-20 05:26 | 35.14907 | -119.45972 | 33969 ft | 470 kts | 124° |
| 2026-04-20 05:26 | 35.13214 | -119.42565 | 34107 ft | 470 kts | 124° |
| 2026-04-20 05:26 | 35.11519 | -119.39149 | 34245 ft | 470 kts | 124° |
| 2026-04-20 05:26 | 35.09839 | -119.35778 | 34368 ft | 470 kts | 124° |
| 2026-04-20 05:27 | 35.08142 | -119.32366 | 34476 ft | 471 kts | 124° |
| 2026-04-20 05:27 | 35.06442 | -119.28958 | 34603 ft | 471 kts | 124° |
| 2026-04-20 05:27 | 35.04739 | -119.25543 | 34742 ft | 471 kts | 124° |
| 2026-04-20 05:28 | 35.01329 | -119.18720 | 34952 ft | 472 kts | 124° |
| 2026-04-20 05:28 | 34.99620 | -119.15305 | 35070 ft | 471 kts | 124° |
| 2026-04-20 05:28 | 34.97911 | -119.11891 | 35189 ft | 472 kts | 124° |
| 2026-04-20 05:28 | 34.96200 | -119.08479 | 35312 ft | 472 kts | 124° |
| 2026-04-20 05:29 | 34.94487 | -119.05066 | 35418 ft | 472 kts | 124° |
| 2026-04-20 05:29 | 34.91054 | -118.98233 | 35622 ft | 473 kts | 124° |
| 2026-04-20 05:29 | 34.89332 | -118.94817 | 35734 ft | 473 kts | 124° |
| 2026-04-20 05:30 | 34.87611 | -118.91398 | 35803 ft | 474 kts | 124° |
| 2026-04-20 05:30 | 34.84157 | -118.84551 | 35980 ft | 475 kts | 124° |
| 2026-04-20 05:30 | 34.82427 | -118.81126 | 36098 ft | 475 kts | 124° |
| 2026-04-20 05:31 | 34.80694 | -118.77700 | 36147 ft | 476 kts | 124° |
| 2026-04-20 05:31 | 34.77222 | -118.70845 | 36323 ft | 476 kts | 124° |
| 2026-04-20 05:31 | 34.75506 | -118.67462 | 36438 ft | 476 kts | 124° |
| 2026-04-20 05:32 | 34.73763 | -118.64031 | 36490 ft | 477 kts | 124° |
| 2026-04-20 05:32 | 34.70271 | -118.57164 | 36647 ft | 477 kts | 124° |
| 2026-04-20 05:33 | 34.66776 | -118.50301 | 36808 ft | 477 kts | 124° |
| 2026-04-20 05:33 | 34.63272 | -118.43444 | 36973 ft | 478 kts | 124° |
| 2026-04-20 05:34 | 34.59759 | -118.36571 | 37136 ft | 478 kts | 124° |
| 2026-04-20 05:34 | 34.54519 | -118.26352 | 37358 ft | 479 kts | 124° |
| 2026-04-20 05:35 | 34.50993 | -118.19491 | 37506 ft | 479 kts | 124° |
| 2026-04-20 05:35 | 34.47456 | -118.12623 | 37658 ft | 479 kts | 124° |
| 2026-04-20 05:36 | 34.43913 | -118.05763 | 37736 ft | 480 kts | 124° |
| 2026-04-20 05:36 | 34.41108 | -117.98434 | 37743 ft | 486 kts | 109° |
| 2026-04-20 05:37 | 34.39299 | -117.90526 | 37754 ft | 489 kts | 105° |
| 2026-04-20 05:37 | 34.37526 | -117.82582 | 37955 ft | 488 kts | 107° |
| 2026-04-20 05:38 | 34.35608 | -117.74679 | 38020 ft | 490 kts | 107° |
| 2026-04-20 05:38 | 34.34661 | -117.70715 | 38127 ft | 489 kts | 107° |
| 2026-04-20 05:38 | 34.33710 | -117.66761 | 38195 ft | 490 kts | 107° |
| 2026-04-20 05:39 | 34.32755 | -117.62807 | 38308 ft | 489 kts | 107° |
| 2026-04-20 05:39 | 34.31799 | -117.58847 | 38342 ft | 489 kts | 108° |
| 2026-04-20 05:39 | 34.29889 | -117.50958 | 38448 ft | 488 kts | 107° |
| 2026-04-20 05:40 | 34.27989 | -117.43134 | 38539 ft | 488 kts | 108° |
| 2026-04-20 05:40 | 34.26069 | -117.35260 | 38688 ft | 488 kts | 108° |
| 2026-04-20 05:41 | 34.24152 | -117.27399 | 38820 ft | 487 kts | 108° |
| 2026-04-20 05:41 | 34.22225 | -117.19545 | 38891 ft | 487 kts | 108° |
| 2026-04-20 05:42 | 34.20309 | -117.11748 | 39011 ft | 486 kts | 108° |
| 2026-04-20 05:42 | 34.18378 | -117.03925 | 39057 ft | 486 kts | 108° |
| 2026-04-20 05:43 | 34.16443 | -116.96096 | 39145 ft | 485 kts | 108° |
| 2026-04-20 05:43 | 34.14502 | -116.88275 | 39170 ft | 486 kts | 109° |
| 2026-04-20 05:44 | 34.12559 | -116.80460 | 39184 ft | 486 kts | 109° |
| 2026-04-20 05:44 | 34.10623 | -116.72701 | 39280 ft | 486 kts | 109° |
| 2026-04-20 05:45 | 34.08667 | -116.64892 | 39357 ft | 486 kts | 109° |
| 2026-04-20 05:45 | 34.06709 | -116.57091 | 39430 ft | 486 kts | 109° |
| 2026-04-20 05:46 | 34.04743 | -116.49285 | 39467 ft | 486 kts | 109° |
| 2026-04-20 05:46 | 34.02767 | -116.41466 | 39506 ft | 487 kts | 109° |
| 2026-04-20 05:47 | 34.00791 | -116.33660 | 39595 ft | 486 kts | 109° |
| 2026-04-20 05:47 | 33.98821 | -116.25908 | 39635 ft | 487 kts | 109° |
| 2026-04-20 05:48 | 33.96832 | -116.18097 | 39678 ft | 487 kts | 109° |
| 2026-04-20 05:48 | 33.95871 | -116.14350 | 39681 ft | 472 kts | 110° |
| 2026-04-20 05:48 | 33.94937 | -116.10816 | 39671 ft | 452 kts | 110° |
| 2026-04-20 05:49 | 33.93994 | -116.07297 | 39649 ft | 432 kts | 111° |
| 2026-04-20 05:49 | 33.93094 | -116.03936 | 39617 ft | 412 kts | 111° |
| 2026-04-20 05:49 | 33.92208 | -116.00745 | 39569 ft | 393 kts | 111° |
| 2026-04-20 05:49 | 33.91401 | -115.97683 | 39518 ft | 374 kts | 110° |
| 2026-04-20 05:50 | 33.90650 | -115.94783 | 39453 ft | 355 kts | 110° |
| 2026-04-20 05:50 | 33.89937 | -115.92014 | 39328 ft | 336 kts | 110° |
| 2026-04-20 05:50 | 33.89264 | -115.89395 | 39015 ft | 320 kts | 121° |